Plummer, MN (56748)

3:50 PM CDT on July 29, 2016 (GMT -0500)
Thief River Falls Regional | | Change Station

Elev 1115 ft 48.06 °N, 96.18 °W | Updated 54 minutes ago

Partly Cloudy
Partly Cloudy
76 °F
Feels Like 76 °F
N
4
Wind Variable Wind from Variable

Today
High -- | Low -- °F
--% Chance of Precip.
Yesterday
High -- | Low -- °F
Precip. -- in
Pressure 30.08 in
Visibility 10.0 miles
Clouds Few 4900 ft
Dew Point 54 °F
Humidity 46%
Rainfall 0.00 in
Snow Depth Not available.
5:57 AM 9:02 PM
Waning Crescent, 19% visible
METAR KTVF 291956Z AUTO VRB03KT 10SM FEW049 24/12 A3007 RMK AO2 SLP184 T02440122 TSNO
Pressure 30.08 in
Visibility 10.0 miles
Clouds Few 4900 ft
Dew Point 54 °F
Humidity 46%
Rainfall 0.00 in
Snow Depth Not available.
5:57 AM 9:02 PM
Waning Crescent, 19% visible
METAR KTVF 291956Z AUTO VRB03KT 10SM FEW049 24/12 A3007 RMK AO2 SLP184 T02440122 TSNO

10-Day Weather Forecast

Almanac

Astronomy

Jul. 29, 2016 Rise Set
Actual Time
Civil Twilight
Nautical Twilight
Astronomical Twilight
Moon
Length of Visible Light
Length of Day
Tomorrow will be .
, % of the Moon is Illuminated

Today's Extremes

State Highs State Lows

Community

WunderPhotos

Upload Photos

1,928,411 photos uploaded!

WunderBlog® & News

Nearby

Air Quality

  Air Quality AQ Index Pollutant
Not available.

Snow Depth

Station Depth Elevation

Earthquake Activity

City Distance Mag. Time & Date
Minimum magnitude displayed is 2.5.

Coastal Water Temperatures

Place Temperature

Stations

Nearby Weather Stations

Station Location Temp. Windchill Dew Point Humidity Wind Precip. Elev Updated Type
                   

Watches & Warnings

There are currently no watches in effect.